sensor_id;sensor_type;location;lat;lon;timestamp;pressure;altitude;pressure_sealevel;temperature;humidity
6464;BME280;3265;42.694;23.282;2023-07-29T00:00:42;71443.63;;;-143.21;51.20
6464;BME280;3265;42.694;23.282;2023-07-29T00:03:09;71433.72;;;-143.21;51.49
6464;BME280;3265;42.694;23.282;2023-07-29T00:05:37;71433.72;;;-143.21;51.86
6464;BME280;3265;42.694;23.282;2023-07-29T00:08:05;71443.63;;;-143.21;52.08
6464;BME280;3265;42.694;23.282;2023-07-29T00:10:35;71455.53;;;-143.21;52.57
6464;BME280;3265;42.694;23.282;2023-07-29T00:13:02;71451.56;;;-143.21;52.70
6464;BME280;3265;42.694;23.282;2023-07-29T00:15:29;71455.53;;;-143.21;52.36
6464;BME280;3265;42.694;23.282;2023-07-29T00:17:56;71459.47;;;-143.21;52.70
6464;BME280;3265;42.694;23.282;2023-07-29T00:20:23;71459.47;;;-143.21;52.93
6464;BME280;3265;42.694;23.282;2023-07-29T00:22:51;71431.72;;;-143.21;52.25
6464;BME280;3265;42.694;23.282;2023-07-29T00:25:20;71407.94;;;-143.21;51.72
6464;BME280;3265;42.694;23.282;2023-07-29T00:27:46;71400.00;;;-143.21;51.71
6464;BME280;3265;42.694;23.282;2023-07-29T00:30:13;71398.03;;;-143.21;51.54
6464;BME280;3265;42.694;23.282;2023-07-29T00:32:40;71398.03;;;-143.21;51.60
6464;BME280;3265;42.694;23.282;2023-07-29T00:35:08;71409.91;;;-143.21;51.92
6464;BME280;3265;42.694;23.282;2023-07-29T00:37:34;71417.84;;;-143.21;52.62
6464;BME280;3265;42.694;23.282;2023-07-29T00:40:14;71439.66;;;-143.21;52.86
6464;BME280;3265;42.694;23.282;2023-07-29T00:42:41;71457.50;;;-143.21;53.15
6464;BME280;3265;42.694;23.282;2023-07-29T00:45:09;71461.47;;;-143.21;53.20
6464;BME280;3265;42.694;23.282;2023-07-29T00:47:36;71467.41;;;-143.21;53.79
6464;BME280;3265;42.694;23.282;2023-07-29T00:50:03;71461.47;;;-143.21;53.94
6464;BME280;3265;42.694;23.282;2023-07-29T00:52:30;71467.41;;;-143.21;54.04
6464;BME280;3265;42.694;23.282;2023-07-29T00:54:57;71473.38;;;-143.21;54.04
6464;BME280;3265;42.694;23.282;2023-07-29T00:57:25;71489.22;;;-143.21;54.12
6464;BME280;3265;42.694;23.282;2023-07-29T00:59:53;71493.19;;;-143.21;54.56
6464;BME280;3265;42.694;23.282;2023-07-29T01:02:20;71481.28;;;-143.21;54.45
6464;BME280;3265;42.694;23.282;2023-07-29T01:04:51;71465.44;;;-143.21;54.43
6464;BME280;3265;42.694;23.282;2023-07-29T01:07:22;71463.44;;;-143.21;54.27
6464;BME280;3265;42.694;23.282;2023-07-29T01:09:55;71483.28;;;-143.21;54.52
6464;BME280;3265;42.694;23.282;2023-07-29T01:12:34;71479.31;;;-143.21;54.01
6464;BME280;3265;42.694;23.282;2023-07-29T01:15:09;71481.28;;;-143.21;54.19
6464;BME280;3265;42.694;23.282;2023-07-29T01:17:42;71481.28;;;-143.21;54.04
6464;BME280;3265;42.694;23.282;2023-07-29T01:20:14;71479.31;;;-143.21;53.67
6464;BME280;3265;42.694;23.282;2023-07-29T01:22:41;71481.28;;;-143.21;53.65
6464;BME280;3265;42.694;23.282;2023-07-29T01:25:10;71483.28;;;-143.21;53.69
6464;BME280;3265;42.694;23.282;2023-07-29T01:27:37;71471.38;;;-143.21;53.37
6464;BME280;3265;42.694;23.282;2023-07-29T01:30:05;71477.34;;;-143.21;53.16
6464;BME280;3265;42.694;23.282;2023-07-29T01:32:37;71471.38;;;-143.21;53.14
6464;BME280;3265;42.694;23.282;2023-07-29T01:35:13;71473.38;;;-143.21;53.04
6464;BME280;3265;42.694;23.282;2023-07-29T01:37:41;71487.25;;;-143.21;53.23
6464;BME280;3265;42.694;23.282;2023-07-29T01:40:12;71473.38;;;-143.21;53.04
6464;BME280;3265;42.694;23.282;2023-07-29T01:42:40;71481.28;;;-143.21;53.61
6464;BME280;3265;42.694;23.282;2023-07-29T01:45:07;71511.03;;;-143.21;53.93
6464;BME280;3265;42.694;23.282;2023-07-29T01:47:34;71528.88;;;-143.21;54.19
6464;BME280;3265;42.694;23.282;2023-07-29T01:50:02;71536.81;;;-143.21;54.62
6464;BME280;3265;42.694;23.282;2023-07-29T01:52:29;71566.56;;;-143.21;54.90
6464;BME280;3265;42.694;23.282;2023-07-29T01:54:56;71568.53;;;-143.21;55.11
6464;BME280;3265;42.694;23.282;2023-07-29T01:57:24;71566.56;;;-143.21;54.96
6464;BME280;3265;42.694;23.282;2023-07-29T01:59:51;71578.44;;;-143.21;55.22
6464;BME280;3265;42.694;23.282;2023-07-29T02:02:18;71590.34;;;-143.21;55.64
6464;BME280;3265;42.694;23.282;2023-07-29T02:04:45;71586.38;;;-143.21;56.35
6464;BME280;3265;42.694;23.282;2023-07-29T02:07:16;71578.44;;;-143.21;56.21
6464;BME280;3265;42.694;23.282;2023-07-29T02:09:43;71576.47;;;-143.21;56.11
6464;BME280;3265;42.694;23.282;2023-07-29T02:12:10;71578.44;;;-143.21;56.47
6464;BME280;3265;42.694;23.282;2023-07-29T02:14:38;71590.34;;;-143.21;57.01
6464;BME280;3265;42.694;23.282;2023-07-29T02:17:05;71598.28;;;-143.21;56.90
6464;BME280;3265;42.694;23.282;2023-07-29T02:19:32;71606.22;;;-143.21;56.74
6464;BME280;3265;42.694;23.282;2023-07-29T02:21:59;71612.16;;;-143.21;57.13
6464;BME280;3265;42.694;23.282;2023-07-29T02:24:25;71606.22;;;-143.21;57.06
6464;BME280;3265;42.694;23.282;2023-07-29T02:26:52;71610.16;;;-143.21;57.18
6464;BME280;3265;42.694;23.282;2023-07-29T02:29:19;71598.28;;;-143.21;57.09
6464;BME280;3265;42.694;23.282;2023-07-29T02:31:48;71594.31;;;-143.21;56.82
6464;BME280;3265;42.694;23.282;2023-07-29T02:34:15;71592.31;;;-143.21;56.97
6464;BME280;3265;42.694;23.282;2023-07-29T02:36:41;71590.34;;;-143.21;57.16
6464;BME280;3265;42.694;23.282;2023-07-29T02:39:08;71598.28;;;-143.21;57.26
6464;BME280;3265;42.694;23.282;2023-07-29T02:41:35;71602.25;;;-143.21;57.37
6464;BME280;3265;42.694;23.282;2023-07-29T02:44:03;71602.25;;;-143.21;57.54
6464;BME280;3265;42.694;23.282;2023-07-29T02:46:29;71588.38;;;-143.21;57.12
6464;BME280;3265;42.694;23.282;2023-07-29T02:48:58;71580.44;;;-143.21;56.57
6464;BME280;3265;42.694;23.282;2023-07-29T02:51:24;71582.41;;;-143.21;56.87
6464;BME280;3265;42.694;23.282;2023-07-29T02:53:51;71586.38;;;-143.21;56.81
6464;BME280;3265;42.694;23.282;2023-07-29T02:56:18;71594.31;;;-143.21;56.95
6464;BME280;3265;42.694;23.282;2023-07-29T02:58:45;71606.22;;;-143.21;57.23
6464;BME280;3265;42.694;23.282;2023-07-29T03:01:11;71596.28;;;-143.21;57.17
6464;BME280;3265;42.694;23.282;2023-07-29T03:03:39;71606.22;;;-143.21;57.19
6464;BME280;3265;42.694;23.282;2023-07-29T03:06:08;71618.09;;;-143.21;57.37
6464;BME280;3265;42.694;23.282;2023-07-29T03:08:36;71620.09;;;-143.21;57.42
6464;BME280;3265;42.694;23.282;2023-07-29T03:11:05;71630.00;;;-143.21;57.66
6464;BME280;3265;42.694;23.282;2023-07-29T03:13:32;71637.94;;;-143.21;57.75
6464;BME280;3265;42.694;23.282;2023-07-29T03:16:05;71651.81;;;-143.21;58.05
6464;BME280;3265;42.694;23.282;2023-07-29T03:18:32;71653.78;;;-143.21;58.14
6464;BME280;3265;42.694;23.282;2023-07-29T03:20:59;71667.66;;;-143.21;58.55
6464;BME280;3265;42.694;23.282;2023-07-29T03:23:27;71671.63;;;-143.21;58.93
6464;BME280;3265;42.694;23.282;2023-07-29T03:25:55;71663.72;;;-143.21;58.78
6464;BME280;3265;42.694;23.282;2023-07-29T03:28:23;71669.66;;;-143.21;59.06
6464;BME280;3265;42.694;23.282;2023-07-29T03:30:51;71665.69;;;-143.21;59.07
6464;BME280;3265;42.694;23.282;2023-07-29T03:33:17;71679.56;;;-143.21;59.08
6464;BME280;3265;42.694;23.282;2023-07-29T03:35:44;71681.56;;;-143.21;59.26
6464;BME280;3265;42.694;23.282;2023-07-29T03:38:11;71685.50;;;-143.21;59.39
6464;BME280;3265;42.694;23.282;2023-07-29T03:40:40;71687.50;;;-143.21;59.21
6464;BME280;3265;42.694;23.282;2023-07-29T03:43:07;71685.50;;;-143.21;58.80
6464;BME280;3265;42.694;23.282;2023-07-29T03:45:35;71657.75;;;-143.21;58.03
6464;BME280;3265;42.694;23.282;2023-07-29T03:48:02;71622.06;;;-143.21;56.71
6464;BME280;3265;42.694;23.282;2023-07-29T03:50:30;71604.22;;;-143.21;56.40
6464;BME280;3265;42.694;23.282;2023-07-29T03:52:57;71598.28;;;-143.21;55.82
6464;BME280;3265;42.694;23.282;2023-07-29T03:55:24;71588.38;;;-143.21;55.76
6464;BME280;3265;42.694;23.282;2023-07-29T03:57:52;71594.31;;;-143.21;55.69
6464;BME280;3265;42.694;23.282;2023-07-29T04:00:19;71604.22;;;-143.21;55.88
6464;BME280;3265;42.694;23.282;2023-07-29T04:02:46;71618.09;;;-143.21;56.39
6464;BME280;3265;42.694;23.282;2023-07-29T04:05:13;71633.97;;;-143.21;56.56
6464;BME280;3265;42.694;23.282;2023-07-29T04:07:40;71651.81;;;-143.21;56.77
6464;BME280;3265;42.694;23.282;2023-07-29T04:10:07;71659.75;;;-143.21;57.08
6464;BME280;3265;42.694;23.282;2023-07-29T04:12:34;71667.66;;;-143.21;57.30
6464;BME280;3265;42.694;23.282;2023-07-29T04:15:03;71667.66;;;-143.21;57.18
6464;BME280;3265;42.694;23.282;2023-07-29T04:17:30;71667.66;;;-143.21;57.45
6464;BME280;3265;42.694;23.282;2023-07-29T04:19:56;71665.69;;;-143.21;57.42
6464;BME280;3265;42.694;23.282;2023-07-29T04:22:23;71663.72;;;-143.21;57.53
6464;BME280;3265;42.694;23.282;2023-07-29T04:24:50;71653.78;;;-143.21;57.34
6464;BME280;3265;42.694;23.282;2023-07-29T04:27:17;71655.78;;;-143.21;57.40
6464;BME280;3265;42.694;23.282;2023-07-29T04:29:44;71639.91;;;-143.21;57.29
6464;BME280;3265;42.694;23.282;2023-07-29T04:32:12;71614.13;;;-143.21;56.67
6464;BME280;3265;42.694;23.282;2023-07-29T04:34:39;71600.25;;;-143.21;56.37
6464;BME280;3265;42.694;23.282;2023-07-29T04:37:06;71594.31;;;-143.21;56.27
6464;BME280;3265;42.694;23.282;2023-07-29T04:39:32;71592.31;;;-143.21;56.08
6464;BME280;3265;42.694;23.282;2023-07-29T04:41:59;71602.25;;;-143.21;56.40
6464;BME280;3265;42.694;23.282;2023-07-29T04:44:27;71614.13;;;-143.21;56.40
6464;BME280;3265;42.694;23.282;2023-07-29T04:46:54;71608.19;;;-143.21;56.42
6464;BME280;3265;42.694;23.282;2023-07-29T04:49:22;71606.22;;;-143.21;56.79
6464;BME280;3265;42.694;23.282;2023-07-29T04:51:48;71612.16;;;-143.21;56.66
6464;BME280;3265;42.694;23.282;2023-07-29T04:54:15;71606.22;;;-143.21;56.62
6464;BME280;3265;42.694;23.282;2023-07-29T04:56:42;71600.25;;;-143.21;57.03
6464;BME280;3265;42.694;23.282;2023-07-29T04:59:09;71596.28;;;-143.21;56.98
6464;BME280;3265;42.694;23.282;2023-07-29T05:01:38;71594.31;;;-143.21;56.65
6464;BME280;3265;42.694;23.282;2023-07-29T05:04:05;71586.38;;;-143.21;56.52
6464;BME280;3265;42.694;23.282;2023-07-29T05:06:33;71592.31;;;-143.21;56.74
6464;BME280;3265;42.694;23.282;2023-07-29T05:09:12;71598.28;;;-143.21;56.77
6464;BME280;3265;42.694;23.282;2023-07-29T05:11:39;71596.28;;;-143.21;57.04
6464;BME280;3265;42.694;23.282;2023-07-29T05:14:06;71608.19;;;-143.21;57.53
6464;BME280;3265;42.694;23.282;2023-07-29T05:16:34;71608.19;;;-143.21;57.50
6464;BME280;3265;42.694;23.282;2023-07-29T05:19:01;71614.13;;;-143.21;57.30
6464;BME280;3265;42.694;23.282;2023-07-29T05:21:28;71614.13;;;-143.21;57.21
6464;BME280;3265;42.694;23.282;2023-07-29T05:23:56;71596.28;;;-143.21;56.84
6464;BME280;3265;42.694;23.282;2023-07-29T05:26:23;71594.31;;;-143.21;57.00
6464;BME280;3265;42.694;23.282;2023-07-29T05:28:50;71574.47;;;-143.21;56.82
6464;BME280;3265;42.694;23.282;2023-07-29T05:31:17;71570.53;;;-143.21;56.54
6464;BME280;3265;42.694;23.282;2023-07-29T05:33:44;71562.59;;;-143.21;56.49
6464;BME280;3265;42.694;23.282;2023-07-29T05:36:11;71532.84;;;-143.21;55.72
6464;BME280;3265;42.694;23.282;2023-07-29T05:38:37;71511.03;;;-143.21;54.77
6464;BME280;3265;42.694;23.282;2023-07-29T05:41:05;71489.22;;;-143.21;54.64
6464;BME280;3265;42.694;23.282;2023-07-29T05:43:32;71487.25;;;-143.21;54.48
6464;BME280;3265;42.694;23.282;2023-07-29T05:45:59;71487.25;;;-143.21;54.75
6464;BME280;3265;42.694;23.282;2023-07-29T05:48:27;71487.25;;;-143.21;54.51
6464;BME280;3265;42.694;23.282;2023-07-29T05:50:54;71481.28;;;-143.21;54.82
6464;BME280;3265;42.694;23.282;2023-07-29T05:53:20;71483.28;;;-143.21;54.68
6464;BME280;3265;42.694;23.282;2023-07-29T05:55:47;71471.38;;;-143.21;54.12
6464;BME280;3265;42.694;23.282;2023-07-29T05:58:16;71469.41;;;-143.21;53.79
6464;BME280;3265;42.694;23.282;2023-07-29T06:00:43;71469.41;;;-143.21;53.99
6464;BME280;3265;42.694;23.282;2023-07-29T06:03:11;71459.47;;;-143.21;53.23
6464;BME280;3265;42.694;23.282;2023-07-29T06:05:38;71459.47;;;-143.21;53.38
6464;BME280;3265;42.694;23.282;2023-07-29T06:08:05;71447.59;;;-143.21;53.23
6464;BME280;3265;42.694;23.282;2023-07-29T06:10:34;71439.66;;;-143.21;53.23
6464;BME280;3265;42.694;23.282;2023-07-29T06:13:01;71435.69;;;-143.21;53.51
6464;BME280;3265;42.694;23.282;2023-07-29T06:15:29;71423.78;;;-143.21;53.10
6464;BME280;3265;42.694;23.282;2023-07-29T06:17:56;71421.81;;;-143.21;52.76
6464;BME280;3265;42.694;23.282;2023-07-29T06:20:25;71423.78;;;-143.21;53.06
6464;BME280;3265;42.694;23.282;2023-07-29T06:22:52;71413.88;;;-143.21;53.00
6464;BME280;3265;42.694;23.282;2023-07-29T06:25:19;71403.97;;;-143.21;53.29
6464;BME280;3265;42.694;23.282;2023-07-29T06:27:47;71392.06;;;-143.21;53.37
6464;BME280;3265;42.694;23.282;2023-07-29T06:30:14;71384.16;;;-143.21;53.09
6464;BME280;3265;42.694;23.282;2023-07-29T06:32:42;71340.53;;;-143.21;51.83
6464;BME280;3265;42.694;23.282;2023-07-29T06:35:09;71310.78;;;-143.21;51.33
6464;BME280;3265;42.694;23.282;2023-07-29T06:37:36;71285.03;;;-143.21;50.88
6464;BME280;3265;42.694;23.282;2023-07-29T06:40:03;71269.16;;;-143.21;50.17
6464;BME280;3265;42.694;23.282;2023-07-29T06:42:30;71265.19;;;-143.21;49.42
6464;BME280;3265;42.694;23.282;2023-07-29T06:44:57;71257.25;;;-143.21;49.18
6464;BME280;3265;42.694;23.282;2023-07-29T06:47:24;71245.38;;;-143.21;49.19
6464;BME280;3265;42.694;23.282;2023-07-29T06:49:53;71241.41;;;-143.21;48.97
6464;BME280;3265;42.694;23.282;2023-07-29T06:52:20;71237.44;;;-143.21;49.00
6464;BME280;3265;42.694;23.282;2023-07-29T06:54:47;71233.47;;;-143.21;48.57
6464;BME280;3265;42.694;23.282;2023-07-29T06:57:14;71223.56;;;-143.21;48.21
6464;BME280;3265;42.694;23.282;2023-07-29T06:59:40;71219.59;;;-143.21;48.02
6464;BME280;3265;42.694;23.282;2023-07-29T07:02:07;71215.63;;;-143.21;48.45
6464;BME280;3265;42.694;23.282;2023-07-29T07:04:34;71209.69;;;-143.21;48.65
6464;BME280;3265;42.694;23.282;2023-07-29T07:07:02;71205.72;;;-143.21;48.58
6464;BME280;3265;42.694;23.282;2023-07-29T07:09:29;71193.81;;;-143.21;48.14
6464;BME280;3265;42.694;23.282;2023-07-29T07:11:56;71170.03;;;-143.21;48.08
6464;BME280;3265;42.694;23.282;2023-07-29T07:14:23;71150.22;;;-143.21;47.23
6464;BME280;3265;42.694;23.282;2023-07-29T07:16:51;71134.34;;;-143.21;46.61
6464;BME280;3265;42.694;23.282;2023-07-29T07:19:17;71142.28;;;-143.21;47.03
6464;BME280;3265;42.694;23.282;2023-07-29T07:21:44;71126.41;;;-143.21;47.05
6464;BME280;3265;42.694;23.282;2023-07-29T07:24:12;71100.66;;;-143.21;46.74
6464;BME280;3265;42.694;23.282;2023-07-29T07:26:39;71086.75;;;-143.21;46.65
6464;BME280;3265;42.694;23.282;2023-07-29T07:29:06;71074.88;;;-143.21;46.21
6464;BME280;3265;42.694;23.282;2023-07-29T07:31:33;71068.94;;;-143.21;46.12
6464;BME280;3265;42.694;23.282;2023-07-29T07:34:00;71066.94;;;-143.21;45.99
6464;BME280;3265;42.694;23.282;2023-07-29T07:36:29;71072.88;;;-143.21;45.21
6464;BME280;3265;42.694;23.282;2023-07-29T07:38:56;71074.88;;;-143.21;45.57
6464;BME280;3265;42.694;23.282;2023-07-29T07:41:25;71070.91;;;-143.21;46.02
6464;BME280;3265;42.694;23.282;2023-07-29T07:43:51;71072.88;;;-143.21;46.40
6464;BME280;3265;42.694;23.282;2023-07-29T07:46:18;71053.06;;;-143.21;46.17
6464;BME280;3265;42.694;23.282;2023-07-29T07:48:45;71031.25;;;-143.21;46.26
6464;BME280;3265;42.694;23.282;2023-07-29T07:51:12;71023.34;;;-143.21;45.85
6464;BME280;3265;42.694;23.282;2023-07-29T07:53:39;71005.50;;;-143.21;45.38
6464;BME280;3265;42.694;23.282;2023-07-29T07:56:06;70997.56;;;-143.21;45.24
6464;BME280;3265;42.694;23.282;2023-07-29T07:58:35;70993.59;;;-143.21;44.17
6464;BME280;3265;42.694;23.282;2023-07-29T08:01:02;70983.69;;;-143.21;43.88
6464;BME280;3265;42.694;23.282;2023-07-29T08:03:30;70981.69;;;-143.21;43.96
6464;BME280;3265;42.694;23.282;2023-07-29T08:05:56;70959.91;;;-143.21;43.52
6464;BME280;3265;42.694;23.282;2023-07-29T08:08:23;70961.88;;;-143.21;43.69
6464;BME280;3265;42.694;23.282;2023-07-29T08:10:51;70948.00;;;-143.21;43.43
6464;BME280;3265;42.694;23.282;2023-07-29T08:13:18;70946.03;;;-143.21;43.61
6464;BME280;3265;42.694;23.282;2023-07-29T08:15:47;70951.97;;;-143.21;42.96
6464;BME280;3265;42.694;23.282;2023-07-29T08:18:14;70949.97;;;-143.21;43.20
6464;BME280;3265;42.694;23.282;2023-07-29T08:20:41;70942.06;;;-143.21;43.53
6464;BME280;3265;42.694;23.282;2023-07-29T08:23:08;70924.22;;;-143.21;42.91
6464;BME280;3265;42.694;23.282;2023-07-29T08:25:35;70922.22;;;-143.21;43.26
6464;BME280;3265;42.694;23.282;2023-07-29T08:28:02;70900.41;;;-143.21;43.31
6464;BME280;3265;42.694;23.282;2023-07-29T08:30:29;70880.59;;;-143.21;42.43
6464;BME280;3265;42.694;23.282;2023-07-29T08:32:57;70866.72;;;-143.21;41.14
6464;BME280;3265;42.694;23.282;2023-07-29T08:35:23;70862.75;;;-143.21;41.33
6464;BME280;3265;42.694;23.282;2023-07-29T08:37:50;70860.78;;;-143.21;41.24
6464;BME280;3265;42.694;23.282;2023-07-29T08:40:17;70837.00;;;-143.21;41.16
6464;BME280;3265;42.694;23.282;2023-07-29T08:42:45;70817.16;;;-143.21;40.96
6464;BME280;3265;42.694;23.282;2023-07-29T08:45:15;70813.19;;;-143.21;40.76
6464;BME280;3265;42.694;23.282;2023-07-29T08:47:43;70823.13;;;-143.21;40.89
6464;BME280;3265;42.694;23.282;2023-07-29T08:50:12;70823.13;;;-143.21;40.27
6464;BME280;3265;42.694;23.282;2023-07-29T08:52:40;70807.25;;;-143.21;40.41
6464;BME280;3265;42.694;23.282;2023-07-29T08:55:08;70803.28;;;-143.21;40.17
6464;BME280;3265;42.694;23.282;2023-07-29T08:57:35;70799.31;;;-143.21;39.66
6464;BME280;3265;42.694;23.282;2023-07-29T09:00:02;70793.38;;;-143.21;39.23
6464;BME280;3265;42.694;23.282;2023-07-29T09:02:29;70793.38;;;-143.21;36.92
6464;BME280;3265;42.694;23.282;2023-07-29T09:04:56;70789.41;;;-143.21;37.50
6464;BME280;3265;42.694;23.282;2023-07-29T09:07:24;70761.66;;;-143.21;37.38
6464;BME280;3265;42.694;23.282;2023-07-29T09:09:52;70747.78;;;-143.21;37.49
6464;BME280;3265;42.694;23.282;2023-07-29T09:12:19;70722.03;;;-143.21;36.77
6464;BME280;3265;42.694;23.282;2023-07-29T09:14:46;70725.97;;;-143.21;36.44
6464;BME280;3265;42.694;23.282;2023-07-29T09:17:14;70718.06;;;-143.21;37.36
6464;BME280;3265;42.694;23.282;2023-07-29T09:19:41;70700.22;;;-143.21;37.06
6464;BME280;3265;42.694;23.282;2023-07-29T09:22:17;70690.31;;;-143.21;37.03
6464;BME280;3265;42.694;23.282;2023-07-29T09:24:46;70688.31;;;-143.21;37.30
6464;BME280;3265;42.694;23.282;2023-07-29T09:27:23;70666.50;;;-143.21;37.30
6464;BME280;3265;42.694;23.282;2023-07-29T09:29:50;70662.56;;;-143.21;36.63
6464;BME280;3265;42.694;23.282;2023-07-29T09:32:18;70654.63;;;-143.21;36.42
6464;BME280;3265;42.694;23.282;2023-07-29T09:34:45;70638.75;;;-143.21;35.87
6464;BME280;3265;42.694;23.282;2023-07-29T09:37:16;70644.72;;;-143.21;35.19
6464;BME280;3265;42.694;23.282;2023-07-29T09:39:45;70636.78;;;-143.21;35.67
6464;BME280;3265;42.694;23.282;2023-07-29T09:42:17;70634.81;;;-143.21;35.71
6464;BME280;3265;42.694;23.282;2023-07-29T09:44:44;70613.00;;;-143.21;35.00
6464;BME280;3265;42.694;23.282;2023-07-29T09:47:19;70607.06;;;-143.21;34.87
6464;BME280;3265;42.694;23.282;2023-07-29T09:49:47;70601.09;;;-143.21;34.73
6464;BME280;3265;42.694;23.282;2023-07-29T09:52:15;70618.94;;;-143.21;34.89
6464;BME280;3265;42.694;23.282;2023-07-29T09:54:42;70597.13;;;-143.21;33.93
6464;BME280;3265;42.694;23.282;2023-07-29T09:57:12;70563.44;;;-143.21;34.56
6464;BME280;3265;42.694;23.282;2023-07-29T09:59:40;70569.38;;;-143.21;34.82
6464;BME280;3265;42.694;23.282;2023-07-29T10:02:11;70563.44;;;-143.21;33.48
6464;BME280;3265;42.694;23.282;2023-07-29T10:04:41;70543.63;;;-143.21;33.46
6464;BME280;3265;42.694;23.282;2023-07-29T10:07:09;70507.94;;;-143.21;33.14
6464;BME280;3265;42.694;23.282;2023-07-29T10:09:37;70513.88;;;-143.21;33.82
6464;BME280;3265;42.694;23.282;2023-07-29T10:12:06;70507.94;;;-143.21;33.18
6464;BME280;3265;42.694;23.282;2023-07-29T10:14:35;70502.00;;;-143.21;32.90
6464;BME280;3265;42.694;23.282;2023-07-29T10:17:04;70468.31;;;-143.21;32.43
6464;BME280;3265;42.694;23.282;2023-07-29T10:19:32;70440.56;;;-143.21;32.37
6464;BME280;3265;42.694;23.282;2023-07-29T10:21:59;70428.66;;;-143.21;32.59
6464;BME280;3265;42.694;23.282;2023-07-29T10:24:30;70402.91;;;-143.21;32.20
6464;BME280;3265;42.694;23.282;2023-07-29T10:26:59;70404.88;;;-143.21;32.78
6464;BME280;3265;42.694;23.282;2023-07-29T10:29:30;70422.72;;;-143.21;32.44
6464;BME280;3265;42.694;23.282;2023-07-29T10:32:01;70396.94;;;-143.21;31.91
6464;BME280;3265;42.694;23.282;2023-07-29T10:34:30;70353.34;;;-143.21;31.13
6464;BME280;3265;42.694;23.282;2023-07-29T10:36:58;70335.50;;;-143.21;31.55
6464;BME280;3265;42.694;23.282;2023-07-29T10:39:25;70303.78;;;-143.21;30.36
6464;BME280;3265;42.694;23.282;2023-07-29T10:41:56;70274.06;;;-143.21;30.01
6464;BME280;3265;42.694;23.282;2023-07-29T10:44:46;70244.34;;;-143.21;30.49
6464;BME280;3265;42.694;23.282;2023-07-29T10:47:17;70278.03;;;-143.21;30.73
6464;BME280;3265;42.694;23.282;2023-07-29T10:49:44;70291.91;;;-143.21;30.38
6464;BME280;3265;42.694;23.282;2023-07-29T10:52:13;70260.19;;;-143.21;30.02
6464;BME280;3265;42.694;23.282;2023-07-29T10:54:43;70240.38;;;-143.21;28.97
6464;BME280;3265;42.694;23.282;2023-07-29T10:57:13;70208.66;;;-143.21;28.39
6464;BME280;3265;42.694;23.282;2023-07-29T10:59:41;70157.13;;;-143.21;28.00
6464;BME280;3265;42.694;23.282;2023-07-29T11:02:20;70089.75;;;-143.21;27.77
6464;BME280;3265;42.694;23.282;2023-07-29T11:04:49;70046.16;;;-143.21;27.54
6464;BME280;3265;42.694;23.282;2023-07-29T11:07:23;70000.56;;;-143.21;27.42
6464;BME280;3265;42.694;23.282;2023-07-29T11:09:53;70010.47;;;-143.21;26.77
6464;BME280;3265;42.694;23.282;2023-07-29T11:12:41;70028.31;;;-143.21;26.97
6464;BME280;3265;42.694;23.282;2023-07-29T11:15:13;70022.38;;;-143.21;26.87
6464;BME280;3265;42.694;23.282;2023-07-29T11:17:43;70024.34;;;-143.21;27.18
6464;BME280;3265;42.694;23.282;2023-07-29T11:20:11;70024.34;;;-143.21;26.76
6464;BME280;3265;42.694;23.282;2023-07-29T11:22:38;70008.50;;;-143.21;26.72
6464;BME280;3265;42.694;23.282;2023-07-29T11:25:07;69982.72;;;-143.21;26.68
6464;BME280;3265;42.694;23.282;2023-07-29T11:27:34;69974.81;;;-143.21;26.91
6464;BME280;3265;42.694;23.282;2023-07-29T11:30:03;69982.72;;;-143.21;27.12
6464;BME280;3265;42.694;23.282;2023-07-29T11:32:32;69998.59;;;-143.21;27.57
6464;BME280;3265;42.694;23.282;2023-07-29T11:35:03;69962.91;;;-143.21;27.69
6464;BME280;3265;42.694;23.282;2023-07-29T11:37:30;69953.00;;;-143.21;26.65
6464;BME280;3265;42.694;23.282;2023-07-29T11:39:57;69978.75;;;-143.21;26.92
6464;BME280;3265;42.694;23.282;2023-07-29T11:42:26;69960.94;;;-143.21;27.17
6464;BME280;3265;42.694;23.282;2023-07-29T11:44:53;69917.31;;;-143.21;26.87
6464;BME280;3265;42.694;23.282;2023-07-29T11:47:20;69903.47;;;-143.21;26.19
6464;BME280;3265;42.694;23.282;2023-07-29T11:49:47;69873.72;;;-143.21;25.46
6464;BME280;3265;42.694;23.282;2023-07-29T11:52:15;69861.84;;;-143.21;24.86
6464;BME280;3265;42.694;23.282;2023-07-29T11:54:44;69840.03;;;-143.21;24.81
6464;BME280;3265;42.694;23.282;2023-07-29T11:57:12;69814.28;;;-143.21;24.80
6464;BME280;3265;42.694;23.282;2023-07-29T11:59:40;69873.72;;;-143.21;25.18
6464;BME280;3265;42.694;23.282;2023-07-29T12:02:26;69867.78;;;-143.21;24.89
6464;BME280;3265;42.694;23.282;2023-07-29T12:04:53;69857.88;;;-143.21;25.07
6464;BME280;3265;42.694;23.282;2023-07-29T12:07:21;69853.91;;;-143.21;25.26
6464;BME280;3265;42.694;23.282;2023-07-29T12:09:49;69844.00;;;-143.21;25.26
6464;BME280;3265;42.694;23.282;2023-07-29T12:12:16;69828.16;;;-143.21;25.25
6464;BME280;3265;42.694;23.282;2023-07-29T12:14:44;69806.34;;;-143.21;24.79
6464;BME280;3265;42.694;23.282;2023-07-29T12:17:12;69764.75;;;-143.21;24.76
6464;BME280;3265;42.694;23.282;2023-07-29T12:19:40;69742.94;;;-143.21;25.01
6464;BME280;3265;42.694;23.282;2023-07-29T12:22:08;69723.13;;;-143.21;24.58
6464;BME280;3265;42.694;23.282;2023-07-29T12:24:38;69685.47;;;-143.21;24.47
6464;BME280;3265;42.694;23.282;2023-07-29T12:27:05;69665.66;;;-143.21;24.06
6464;BME280;3265;42.694;23.282;2023-07-29T12:29:39;69645.84;;;-143.21;24.18
6464;BME280;3265;42.694;23.282;2023-07-29T12:32:07;69635.94;;;-143.21;24.39
6464;BME280;3265;42.694;23.282;2023-07-29T12:34:35;69626.03;;;-143.21;23.83
6464;BME280;3265;42.694;23.282;2023-07-29T12:37:03;69616.13;;;-143.21;23.62
6464;BME280;3265;42.694;23.282;2023-07-29T12:39:32;69610.16;;;-143.21;23.64
6464;BME280;3265;42.694;23.282;2023-07-29T12:42:02;69649.81;;;-143.21;24.24
6464;BME280;3265;42.694;23.282;2023-07-29T12:44:30;69669.63;;;-143.21;24.61
6464;BME280;3265;42.694;23.282;2023-07-29T12:46:57;69677.53;;;-143.21;24.70
6464;BME280;3265;42.694;23.282;2023-07-29T12:49:24;69665.66;;;-143.21;24.53
6464;BME280;3265;42.694;23.282;2023-07-29T12:51:51;69659.72;;;-143.21;24.09
6464;BME280;3265;42.694;23.282;2023-07-29T12:54:18;69624.03;;;-143.21;24.36